createdAt,value
2023-02-23T00:01:53.156Z,78.58
2023-02-23T00:04:19.766Z,79.32
2023-02-23T00:06:46.471Z,78.46
2023-02-23T00:09:23.049Z,78.33
2023-02-23T00:11:54.476Z,78.64
2023-02-23T00:14:24.721Z,78.89
2023-02-23T00:16:51.339Z,78.87
2023-02-23T00:19:18.004Z,79.69
2023-02-23T00:21:45.532Z,80.29
2023-02-23T00:24:15.457Z,80.42
2023-02-23T00:26:42.832Z,79.92
2023-02-23T00:29:13.614Z,79.96
2023-02-23T00:31:40.319Z,80.89
2023-02-23T00:34:07.527Z,80.62
2023-02-23T00:36:35.807Z,81.07
2023-02-23T00:39:12.150Z,80.40
2023-02-23T00:41:38.745Z,80.36
2023-02-23T00:44:05.350Z,80.85
2023-02-23T00:46:32.035Z,81.15
2023-02-23T00:48:59.344Z,79.68
2023-02-23T00:51:30.977Z,80.32
2023-02-23T00:53:59.511Z,79.54
2023-02-23T00:56:27.466Z,79.81
2023-02-23T00:58:54.792Z,79.91
2023-02-23T01:01:22.566Z,79.90
2023-02-23T01:03:49.388Z,79.39
2023-02-23T01:06:17.397Z,79.99
2023-02-23T01:08:49.145Z,79.59
2023-02-23T01:11:21.940Z,80.16
2023-02-23T01:13:52.725Z,80.79
2023-02-23T01:16:21.509Z,80.24
2023-02-23T01:18:49.049Z,80.42
2023-02-23T01:21:19.364Z,80.48
2023-02-23T01:23:46.743Z,79.71
2023-02-23T01:26:17.408Z,80.51
2023-02-23T01:28:44.110Z,79.42
2023-02-23T01:31:11.012Z,77.30
2023-02-23T01:33:37.652Z,77.08
2023-02-23T01:36:04.529Z,77.89
2023-02-23T01:38:31.092Z,79.09
2023-02-23T01:40:57.783Z,80.02
2023-02-23T01:43:27.316Z,82.01
2023-02-23T01:46:00.918Z,82.47
2023-02-23T01:48:32.612Z,82.04
2023-02-23T01:51:15.607Z,83.94
2023-02-23T01:53:48.259Z,85.33
2023-02-23T01:56:21.774Z,85.88
2023-02-23T01:58:54.742Z,84.68
2023-02-23T02:01:23.063Z,84.95
2023-02-23T02:04:02.450Z,83.85
2023-02-23T02:06:29.664Z,84.23
2023-02-23T02:09:10.434Z,84.50
2023-02-23T02:11:38.823Z,83.92
2023-02-23T02:14:30.842Z,83.96
2023-02-23T02:17:20.902Z,83.44
2023-02-23T02:20:13.989Z,83.75
2023-02-23T02:23:22.429Z,84.86
2023-02-23T02:25:52.542Z,84.31
2023-02-23T02:28:22.262Z,83.77
2023-02-23T02:31:24.067Z,83.12
2023-02-23T02:34:09.470Z,83.40
2023-02-23T02:36:45.393Z,83.57
2023-02-23T02:39:37.059Z,83.49
2023-02-23T02:42:25.429Z,84.27
2023-02-23T02:45:47.087Z,85.25
2023-02-23T02:48:31.162Z,86.01
2023-02-23T02:51:09.431Z,87.40
2023-02-23T02:53:47.072Z,87.55
2023-02-23T02:56:19.871Z,87.45
2023-02-23T02:58:47.850Z,87.42
2023-02-23T03:01:34.464Z,87.62
2023-02-23T03:04:40.089Z,88.05
2023-02-23T03:07:35.379Z,88.09
2023-02-23T03:10:37.096Z,87.58
2023-02-23T03:13:39.945Z,87.64
2023-02-23T03:16:34.036Z,88.30
2023-02-23T03:19:18.865Z,88.89
2023-02-23T03:22:09.860Z,90.04
2023-02-23T03:25:01.268Z,90.39
2023-02-23T03:28:28.585Z,90.49
2023-02-23T03:31:32.177Z,89.34
2023-02-23T03:34:41.067Z,87.99
2023-02-23T03:37:46.060Z,87.65
2023-02-23T03:41:01.626Z,88.83
2023-02-23T03:43:54.289Z,89.79
2023-02-23T03:46:40.557Z,87.49
2023-02-23T03:49:29.918Z,87.15
2023-02-23T03:52:24.402Z,87.04
2023-02-23T03:55:18.420Z,87.57
2023-02-23T03:58:08.912Z,89.22
2023-02-23T04:01:01.876Z,90.11
2023-02-23T04:03:51.438Z,89.61
2023-02-23T04:06:39.228Z,89.68
2023-02-23T04:09:25.685Z,89.24
2023-02-23T04:12:21.245Z,88.85
2023-02-23T04:15:10.537Z,89.13
2023-02-23T04:17:37.188Z,88.61
2023-02-23T04:20:04.610Z,88.12
2023-02-23T04:22:31.181Z,88.21
2023-02-23T04:24:57.774Z,88.15
2023-02-23T04:27:24.390Z,88.15
2023-02-23T04:29:51.293Z,88.60
2023-02-23T04:32:20.068Z,88.26
2023-02-23T04:34:47.162Z,88.23
2023-02-23T04:37:14.167Z,88.12
2023-02-23T04:39:42.773Z,88.03
2023-02-23T04:42:10.273Z,87.31
2023-02-23T04:44:36.815Z,86.25
2023-02-23T04:47:04.205Z,87.38
2023-02-23T04:49:30.966Z,87.85
2023-02-23T04:51:57.527Z,88.36
2023-02-23T04:54:24.224Z,89.11
2023-02-23T04:56:50.812Z,88.47
2023-02-23T04:59:17.440Z,87.60
2023-02-23T05:01:44.456Z,87.44
2023-02-23T05:04:11.418Z,87.40
2023-02-23T05:06:38.228Z,86.98
2023-02-23T05:09:06.987Z,87.76
2023-02-23T05:11:33.709Z,88.75
2023-02-23T05:14:00.361Z,87.96
2023-02-23T05:16:26.913Z,87.23
2023-02-23T05:18:53.753Z,86.78
2023-02-23T05:21:20.538Z,85.40
2023-02-23T05:23:47.980Z,85.55
2023-02-23T05:26:14.863Z,85.85
2023-02-23T05:28:43.095Z,87.43
2023-02-23T05:31:10.713Z,87.78
2023-02-23T05:33:45.856Z,87.35
2023-02-23T05:36:16.733Z,87.40
2023-02-23T05:38:44.712Z,87.42
2023-02-23T05:41:15.053Z,88.17
2023-02-23T05:43:42.213Z,87.84
2023-02-23T05:46:10.183Z,87.34
2023-02-23T05:48:37.319Z,87.26
2023-02-23T05:51:05.774Z,86.44
2023-02-23T05:53:32.672Z,86.71
2023-02-23T05:55:59.546Z,86.61
2023-02-23T05:58:26.302Z,86.46
2023-02-23T06:00:53.117Z,85.03
2023-02-23T06:03:19.954Z,83.76
2023-02-23T06:05:54.522Z,84.32
2023-02-23T06:08:21.431Z,83.75
2023-02-23T06:10:48.094Z,82.34
2023-02-23T06:13:15.633Z,81.82
2023-02-23T06:15:43.564Z,81.95
2023-02-23T06:18:10.825Z,81.35
2023-02-23T06:20:40.310Z,81.25
2023-02-23T06:23:07.623Z,80.05
2023-02-23T06:25:34.356Z,79.14
2023-02-23T06:28:01.122Z,78.52
2023-02-23T06:30:27.764Z,76.69
2023-02-23T06:32:54.356Z,76.79
2023-02-23T06:35:21.296Z,77.63
2023-02-23T06:37:47.867Z,77.51
2023-02-23T06:40:14.559Z,76.03
2023-02-23T06:42:41.176Z,76.28
2023-02-23T06:45:08.169Z,77.50
2023-02-23T06:47:34.741Z,76.29
2023-02-23T06:50:03.991Z,75.45
2023-02-23T06:52:30.642Z,74.12
2023-02-23T06:54:57.244Z,73.56
2023-02-23T06:57:23.953Z,72.62
2023-02-23T06:59:50.664Z,71.80
2023-02-23T07:02:17.899Z,72.03
2023-02-23T07:04:44.522Z,70.74
2023-02-23T07:07:12.729Z,69.84
2023-02-23T07:09:41.169Z,70.56
2023-02-23T07:12:07.821Z,71.79
2023-02-23T07:14:34.586Z,70.97
2023-02-23T07:17:01.414Z,70.50
2023-02-23T07:19:28.832Z,69.60
2023-02-23T07:21:55.536Z,70.54
2023-02-23T07:24:22.590Z,70.56
2023-02-23T07:26:49.578Z,71.68
2023-02-23T07:29:16.693Z,71.50
2023-02-23T07:31:43.436Z,72.25
2023-02-23T07:34:10.394Z,74.35
2023-02-23T07:36:37.361Z,74.18
2023-02-23T07:39:05.050Z,75.36
2023-02-23T07:41:32.030Z,74.20
2023-02-23T07:43:59.544Z,75.41
2023-02-23T07:46:26.773Z,76.99
2023-02-23T07:48:53.642Z,78.35
2023-02-23T07:51:20.823Z,76.07
2023-02-23T07:53:47.612Z,74.17
2023-02-23T07:56:14.239Z,73.00
2023-02-23T07:58:43.105Z,70.85
2023-02-23T08:01:11.533Z,69.08
2023-02-23T08:03:39.312Z,67.75
2023-02-23T08:06:06.988Z,66.24
2023-02-23T08:08:35.380Z,65.42
2023-02-23T08:11:04.495Z,64.82
2023-02-23T08:13:32.115Z,63.57
2023-02-23T08:15:59.489Z,63.40
2023-02-23T08:18:26.296Z,62.77
2023-02-23T08:20:58.616Z,65.47
2023-02-23T08:23:25.277Z,64.24
2023-02-23T08:25:54.037Z,64.12
2023-02-23T08:28:20.812Z,62.75
2023-02-23T08:30:47.582Z,65.18
2023-02-23T08:33:14.232Z,67.96
2023-02-23T08:35:40.835Z,67.37
2023-02-23T08:38:07.746Z,66.82
2023-02-23T08:40:34.382Z,64.35
2023-02-23T08:43:00.996Z,63.27
2023-02-23T08:45:29.423Z,64.98
2023-02-23T08:47:56.516Z,65.09
2023-02-23T08:50:26.380Z,63.15
2023-02-23T08:52:54.464Z,61.78
2023-02-23T08:55:21.817Z,63.25
2023-02-23T08:57:48.773Z,62.75
2023-02-23T09:00:16.841Z,60.73
2023-02-23T09:02:45.564Z,60.86
2023-02-23T09:05:12.346Z,60.22
2023-02-23T09:07:40.576Z,61.62
2023-02-23T09:10:08.324Z,59.71
2023-02-23T09:12:35.003Z,61.12
2023-02-23T09:15:02.331Z,61.17
2023-02-23T09:17:28.964Z,60.31
2023-02-23T09:19:55.803Z,60.06
2023-02-23T09:22:22.488Z,58.77
2023-02-23T09:24:49.271Z,58.64
2023-02-23T09:27:15.879Z,56.82
2023-02-23T09:29:43.402Z,56.04
2023-02-23T09:32:12.656Z,56.73
2023-02-23T09:34:39.443Z,58.16
2023-02-23T09:37:06.147Z,56.79
2023-02-23T09:39:38.408Z,56.46
2023-02-23T09:42:43.193Z,55.88
2023-02-23T09:45:36.965Z,55.02
2023-02-23T09:48:18.027Z,55.75
2023-02-23T09:50:48.853Z,56.60
2023-02-23T09:53:21.643Z,56.51
2023-02-23T09:55:49.859Z,55.98
2023-02-23T09:58:24.322Z,56.19
2023-02-23T10:01:03.098Z,56.66
2023-02-23T10:03:39.975Z,55.51
2023-02-23T10:06:11.514Z,55.62
2023-02-23T10:09:04.060Z,54.48
2023-02-23T10:11:45.156Z,54.93
2023-02-23T10:14:14.704Z,56.22
2023-02-23T10:17:36.331Z,57.00
2023-02-23T10:20:32.971Z,56.17
2023-02-23T10:23:05.159Z,55.31
2023-02-23T10:25:37.226Z,54.39
2023-02-23T10:28:04.102Z,55.29
2023-02-23T10:30:33.274Z,53.33
2023-02-23T10:33:10.958Z,53.26
2023-02-23T10:35:39.314Z,53.82
2023-02-23T10:38:06.107Z,53.08
2023-02-23T10:40:34.280Z,52.91
2023-02-23T10:43:02.644Z,52.03
2023-02-23T10:45:34.371Z,52.32
2023-02-23T10:48:05.704Z,53.71
2023-02-23T10:50:38.407Z,53.34
2023-02-23T10:53:17.317Z,54.04
2023-02-23T10:55:45.864Z,53.01
2023-02-23T10:58:20.139Z,52.63
2023-02-23T11:00:59.324Z,53.42
2023-02-23T11:04:05.411Z,52.75
2023-02-23T11:06:43.013Z,53.01
2023-02-23T11:09:18.857Z,51.95
2023-02-23T11:12:03.470Z,50.99
2023-02-23T11:14:31.612Z,50.91
2023-02-23T11:17:00.243Z,52.40
2023-02-23T11:19:38.084Z,50.07
2023-02-23T11:22:07.005Z,49.99
2023-02-23T11:24:39.768Z,50.29
2023-02-23T11:27:19.360Z,52.52
2023-02-23T11:29:47.986Z,51.27
2023-02-23T11:32:31.525Z,52.38
2023-02-23T11:35:16.860Z,51.30
2023-02-23T11:37:43.530Z,51.07
2023-02-23T11:40:19.222Z,50.35
2023-02-23T11:43:06.371Z,49.95
2023-02-23T11:45:58.334Z,51.59
2023-02-23T11:48:27.774Z,50.34
2023-02-23T11:50:56.259Z,51.84
2023-02-23T11:53:32.350Z,51.81
2023-02-23T11:56:02.816Z,51.76
2023-02-23T11:58:39.613Z,51.25
2023-02-23T12:01:13.530Z,51.62
2023-02-23T12:03:51.789Z,51.43
2023-02-23T12:06:39.783Z,51.41
2023-02-23T12:09:19.750Z,50.98
2023-02-23T12:11:53.167Z,50.75
2023-02-23T12:14:38.186Z,50.07
2023-02-23T12:17:12.946Z,50.56
2023-02-23T12:19:47.614Z,49.98
2023-02-23T12:22:19.171Z,50.05
2023-02-23T12:25:11.618Z,50.23
2023-02-23T12:27:41.817Z,49.62
2023-02-23T12:30:20.743Z,50.04
2023-02-23T12:33:34.046Z,50.38
2023-02-23T12:36:39.194Z,51.51
2023-02-23T12:39:30.829Z,51.53
2023-02-23T12:42:12.489Z,51.21
2023-02-23T12:44:47.070Z,51.70
2023-02-23T12:47:32.255Z,52.09
2023-02-23T12:50:07.374Z,52.61
2023-02-23T12:52:38.708Z,52.29
2023-02-23T12:55:11.843Z,52.42
2023-02-23T12:57:44.941Z,52.38
2023-02-23T13:00:32.823Z,52.90
2023-02-23T13:03:30.366Z,52.60
2023-02-23T13:06:11.610Z,52.46
2023-02-23T13:08:50.455Z,52.88
2023-02-23T13:11:40.688Z,52.64
2023-02-23T13:14:27.360Z,53.14
2023-02-23T13:17:03.158Z,53.55
2023-02-23T13:19:47.886Z,53.38
2023-02-23T13:22:36.670Z,53.98
2023-02-23T13:25:25.205Z,54.26
2023-02-23T13:27:57.819Z,53.85
2023-02-23T13:30:24.510Z,54.38
2023-02-23T13:32:51.093Z,54.21
2023-02-23T13:35:21.692Z,55.08
2023-02-23T13:38:04.534Z,55.60
2023-02-23T13:41:03.478Z,56.39
2023-02-23T13:43:47.558Z,56.57
2023-02-23T13:46:44.313Z,56.20
2023-02-23T13:49:16.625Z,56.31
2023-02-23T13:51:55.464Z,57.92
2023-02-23T13:54:32.069Z,58.07
2023-02-23T13:57:01.455Z,57.72
2023-02-23T13:59:41.994Z,57.82
2023-02-23T14:02:37.476Z,58.18
2023-02-23T14:05:15.325Z,59.15
2023-02-23T14:07:45.069Z,59.44
2023-02-23T14:10:21.108Z,59.05
2023-02-23T14:13:25.810Z,59.32
2023-02-23T14:16:14.533Z,59.65
2023-02-23T14:19:31.698Z,59.63
2023-02-23T14:22:06.569Z,59.92
2023-02-23T14:24:33.219Z,59.94
2023-02-23T14:27:15.064Z,60.11
2023-02-23T14:29:43.928Z,60.53
2023-02-23T14:32:10.509Z,60.75
2023-02-23T14:34:43.317Z,61.26
2023-02-23T14:37:42.887Z,61.85
2023-02-23T14:40:18.162Z,62.01
2023-02-23T14:42:51.372Z,62.57
2023-02-23T14:45:18.092Z,63.50
2023-02-23T14:47:48.052Z,63.61
2023-02-23T14:50:29.521Z,63.73
2023-02-23T14:52:57.358Z,64.43
2023-02-23T14:55:29.670Z,64.76
2023-02-23T14:57:58.139Z,64.75
2023-02-23T15:00:32.722Z,65.52
2023-02-23T15:03:12.862Z,66.39
2023-02-23T15:06:01.990Z,66.04
2023-02-23T15:08:30.839Z,66.87
2023-02-23T15:11:03.713Z,66.79
2023-02-23T15:13:34.201Z,66.54
2023-02-23T15:16:27.399Z,66.86
2023-02-23T15:18:54.444Z,67.29
2023-02-23T15:21:23.717Z,67.64
2023-02-23T15:23:58.673Z,68.26
2023-02-23T15:26:33.589Z,68.54
2023-02-23T15:29:13.641Z,68.59
2023-02-23T15:31:50.141Z,68.91
2023-02-23T15:34:21.776Z,69.68
2023-02-23T15:36:59.492Z,69.79
2023-02-23T15:40:00.716Z,70.42
2023-02-23T15:42:39.351Z,70.66
2023-02-23T15:45:20.036Z,71.22
2023-02-23T15:47:47.034Z,71.71
2023-02-23T15:50:24.711Z,71.99
2023-02-23T15:53:01.446Z,71.90
2023-02-23T15:55:35.483Z,72.20
2023-02-23T15:58:20.506Z,72.61
2023-02-23T16:00:54.812Z,72.76
2023-02-23T16:03:30.657Z,72.82
2023-02-23T16:06:06.550Z,72.99
2023-02-23T16:08:36.026Z,72.83
2023-02-23T16:11:12.594Z,73.03
2023-02-23T16:13:51.685Z,73.32
2023-02-23T16:16:25.412Z,73.47
2023-02-23T16:19:01.613Z,73.75
2023-02-23T16:21:31.093Z,73.30
2023-02-23T16:24:01.909Z,73.09
2023-02-23T16:26:37.759Z,73.05
2023-02-23T16:29:05.196Z,73.27
2023-02-23T16:31:55.749Z,73.69
2023-02-23T16:34:37.272Z,73.53
2023-02-23T16:37:15.748Z,73.98
2023-02-23T16:39:42.398Z,73.83
2023-02-23T16:42:21.172Z,74.15
2023-02-23T16:44:47.773Z,74.15
2023-02-23T16:47:56.339Z,74.62
2023-02-23T16:50:24.575Z,74.74
2023-02-23T16:52:53.444Z,74.91
2023-02-23T16:55:25.966Z,74.81
2023-02-23T16:58:04.201Z,74.73
2023-02-23T17:00:33.377Z,74.43
2023-02-23T17:03:05.642Z,74.60
2023-02-23T17:05:32.715Z,74.68
2023-02-23T17:07:59.369Z,74.57
2023-02-23T17:10:32.709Z,73.67
2023-02-23T17:13:05.035Z,74.07
2023-02-23T17:15:36.020Z,75.11
2023-02-23T17:18:03.138Z,75.36
2023-02-23T17:20:29.739Z,75.21
2023-02-23T17:22:59.152Z,74.75
2023-02-23T17:25:26.644Z,74.52
2023-02-23T17:27:57.748Z,74.64
2023-02-23T17:30:25.040Z,75.37
2023-02-23T17:32:53.427Z,75.58
2023-02-23T17:35:20.769Z,75.13
2023-02-23T17:37:47.557Z,74.07
2023-02-23T17:40:17.077Z,74.03
2023-02-23T17:42:44.114Z,74.84
2023-02-23T17:45:11.273Z,73.96
2023-02-23T17:47:40.396Z,74.68
2023-02-23T17:50:07.849Z,75.19
2023-02-23T17:52:34.545Z,75.81
2023-02-23T17:55:01.629Z,76.21
2023-02-23T17:57:30.420Z,76.66
2023-02-23T17:59:57.550Z,77.34
2023-02-23T18:02:24.788Z,78.28
2023-02-23T18:04:52.698Z,78.78
2023-02-23T18:07:20.867Z,79.92
2023-02-23T18:09:50.794Z,79.59
2023-02-23T18:12:19.331Z,80.09
2023-02-23T18:14:46.748Z,80.41
2023-02-23T18:17:14.133Z,81.20
2023-02-23T18:19:40.776Z,81.28
2023-02-23T18:22:07.472Z,81.08
2023-02-23T18:24:34.769Z,81.33
2023-02-23T18:27:02.031Z,81.18
2023-02-23T18:29:30.763Z,80.82
2023-02-23T18:31:59.226Z,80.93
2023-02-23T18:34:28.671Z,81.55
2023-02-23T18:37:02.323Z,81.93
2023-02-23T18:39:32.974Z,81.22
2023-02-23T18:42:00.714Z,80.57
2023-02-23T18:44:27.592Z,80.75
2023-02-23T18:46:54.897Z,81.57
2023-02-23T18:49:24.008Z,80.66
2023-02-23T18:51:51.237Z,80.19
2023-02-23T18:54:18.698Z,79.90
2023-02-23T18:56:47.226Z,80.31
2023-02-23T18:59:14.692Z,80.05
2023-02-23T19:01:45.246Z,79.85
2023-02-23T19:04:12.664Z,79.69
2023-02-23T19:06:43.312Z,79.95
2023-02-23T19:09:12.582Z,79.29
2023-02-23T19:11:40.750Z,78.44
2023-02-23T19:14:18.391Z,78.61
2023-02-23T19:16:46.833Z,78.43
2023-02-23T19:19:14.187Z,78.61
2023-02-23T19:21:41.048Z,78.91
2023-02-23T19:24:08.173Z,79.04
2023-02-23T19:26:37.342Z,78.81
2023-02-23T19:29:04.660Z,77.94
2023-02-23T19:31:31.662Z,78.96
2023-02-23T19:33:59.673Z,78.72
2023-02-23T19:36:30.782Z,78.08
2023-02-23T19:39:15.611Z,78.11
2023-02-23T19:41:45.002Z,77.40
2023-02-23T19:44:11.667Z,78.49
2023-02-23T19:46:39.873Z,78.85
2023-02-23T19:49:06.732Z,78.54
2023-02-23T19:51:33.424Z,78.40
2023-02-23T19:54:00.194Z,78.42
2023-02-23T19:56:28.104Z,78.22
2023-02-23T19:58:56.573Z,78.40
2023-02-23T20:01:27.431Z,78.74
2023-02-23T20:03:55.407Z,79.66
2023-02-23T20:06:24.869Z,78.92
2023-02-23T20:08:52.706Z,79.06
2023-02-23T20:11:19.701Z,79.33
2023-02-23T20:13:46.870Z,81.84
2023-02-23T20:16:15.027Z,81.68
2023-02-23T20:18:43.278Z,80.30
2023-02-23T20:21:15.585Z,79.45
2023-02-23T20:23:44.014Z,79.94
2023-02-23T20:26:14.282Z,79.50
2023-02-23T20:28:41.228Z,81.58
2023-02-23T20:31:21.307Z,82.05
2023-02-23T20:33:50.393Z,82.43
2023-02-23T20:36:18.677Z,80.71
2023-02-23T20:38:45.395Z,80.30
2023-02-23T20:41:12.120Z,80.05
2023-02-23T20:43:39.291Z,79.92
2023-02-23T20:46:06.392Z,80.69
2023-02-23T20:48:34.992Z,80.68
2023-02-23T20:51:02.124Z,79.96
2023-02-23T20:53:29.883Z,78.91
2023-02-23T20:55:56.717Z,80.04
2023-02-23T20:58:26.485Z,79.94
2023-02-23T21:00:54.698Z,79.08
2023-02-23T21:03:21.665Z,79.47
2023-02-23T21:05:48.976Z,79.59
2023-02-23T21:08:15.589Z,78.26
2023-02-23T21:10:42.218Z,78.86
2023-02-23T21:13:12.334Z,78.12
2023-02-23T21:15:40.595Z,81.11
2023-02-23T21:18:07.938Z,79.69
2023-02-23T21:20:35.389Z,80.17
2023-02-23T21:23:04.185Z,80.61
2023-02-23T21:25:31.257Z,80.50
2023-02-23T21:28:01.864Z,80.49
2023-02-23T21:30:29.431Z,80.35
2023-02-23T21:32:57.530Z,80.16
2023-02-23T21:35:24.293Z,79.93
2023-02-23T21:37:52.368Z,79.61
2023-02-23T21:40:23.387Z,79.58
2023-02-23T21:42:51.347Z,80.12
2023-02-23T21:45:19.391Z,80.28
2023-02-23T21:47:47.958Z,79.60
2023-02-23T21:50:17.811Z,80.49
2023-02-23T21:52:46.931Z,80.41
2023-02-23T21:55:23.424Z,80.07
2023-02-23T21:57:51.926Z,81.70
2023-02-23T22:00:19.113Z,83.06
2023-02-23T22:02:46.747Z,85.01
2023-02-23T22:05:15.619Z,86.10
2023-02-23T22:07:51.240Z,86.97
2023-02-23T22:10:23.845Z,89.31
2023-02-23T22:12:53.602Z,90.69
2023-02-23T22:15:20.311Z,93.44
2023-02-23T22:17:47.132Z,94.97
2023-02-23T22:20:14.027Z,94.19
2023-02-23T22:22:41.302Z,93.77
2023-02-23T22:25:08.296Z,94.51
2023-02-23T22:27:34.910Z,96.09
2023-02-23T22:30:02.155Z,95.59
2023-02-23T22:32:32.978Z,96.35
2023-02-23T22:35:01.074Z,97.45
2023-02-23T22:37:32.034Z,98.38
2023-02-23T22:40:01.439Z,98.67
2023-02-23T22:42:30.837Z,99.50
2023-02-23T22:44:57.418Z,100.00
2023-02-23T22:47:24.545Z,100.00
2023-02-23T22:49:51.106Z,100.00
2023-02-23T22:52:23.956Z,100.00
2023-02-23T22:54:51.238Z,100.00
2023-02-23T22:57:17.909Z,100.00
2023-02-23T22:59:54.737Z,100.00
2023-02-23T23:02:22.944Z,100.00
2023-02-23T23:04:49.660Z,100.00
2023-02-23T23:07:20.000Z,100.00
2023-02-23T23:09:46.633Z,100.00
2023-02-23T23:12:13.443Z,100.00
2023-02-23T23:14:40.033Z,100.00
2023-02-23T23:17:06.707Z,100.00
2023-02-23T23:19:39.008Z,100.00
2023-02-23T23:22:06.337Z,100.00
2023-02-23T23:24:33.029Z,100.00
2023-02-23T23:27:00.928Z,100.00
2023-02-23T23:29:32.395Z,100.00
2023-02-23T23:32:01.008Z,100.00
2023-02-23T23:34:27.681Z,100.00
2023-02-23T23:36:55.459Z,100.00
2023-02-23T23:39:25.997Z,100.00
2023-02-23T23:41:53.384Z,100.00
2023-02-23T23:44:23.263Z,100.00
2023-02-23T23:46:53.303Z,100.00
2023-02-23T23:49:22.350Z,100.00
2023-02-23T23:51:51.259Z,100.00
2023-02-23T23:54:21.684Z,100.00
2023-02-23T23:56:49.605Z,100.00
2023-02-23T23:59:20.417Z,100.00
